Time;durP1;ratioP1;P1;durP2;ratioP2;P2;SDS_P1;SDS_P2;PMS_P1;PMS_P2;Temp;Humidity;BMP_temperature;BMP_pressure;BME280_temperature;BME280_humidity;BME280_pressure;Samples;Min_cycle;Max_cycle;Signal;HPM_P1;HPM_P2
2023/10/27 00:01:20;;;;;;;0.40;0.40;;;;;;;12.88;96.00;98819.69;5111507;28;20376;-68
2023/10/27 00:03:45;;;;;;;2.22;0.50;;;;;;;12.77;96.13;98821.06;5109593;28;20032;-68
2023/10/27 00:06:10;;;;;;;1.27;0.40;;;;;;;12.92;96.12;98812.28;5112248;28;20088;-68
2023/10/27 00:08:36;;;;;;;0.52;0.47;;;;;;;12.79;95.37;98810.63;5110648;28;20050;-68
2023/10/27 00:11:06;;;;;;;3.97;0.52;;;;;;;12.67;96.84;98799.25;5109217;28;20058;-68
2023/10/27 00:13:32;;;;;;;0.47;0.47;;;;;;;12.56;96.84;98804.06;5090245;28;20024;-68
2023/10/27 00:15:57;;;;;;;0.50;0.40;;;;;;;12.73;96.67;98799.53;5089429;28;20556;-68
2023/10/27 00:18:23;;;;;;;0.57;0.40;;;;;;;12.89;96.25;98807.72;5111377;28;20027;-68
2023/10/27 00:20:48;;;;;;;0.30;0.30;;;;;;;12.80;96.05;98812.13;5110370;28;20035;-70
2023/10/27 00:23:15;;;;;;;0.52;0.40;;;;;;;12.84;95.61;98810.91;5090091;28;20023;-68
2023/10/27 00:25:41;;;;;;;0.68;0.40;;;;;;;12.69;96.19;98807.72;5107073;28;20102;-68
2023/10/27 00:28:06;;;;;;;0.82;0.50;;;;;;;12.68;96.46;98803.47;5110801;28;20134;-68
2023/10/27 00:30:32;;;;;;;1.55;0.47;;;;;;;12.89;95.73;98798.84;5106483;28;20028;-68
2023/10/27 00:32:57;;;;;;;0.30;0.30;;;;;;;12.95;95.37;98797.94;5112160;28;20488;-69
2023/10/27 00:35:23;;;;;;;0.47;0.47;;;;;;;12.99;94.11;98797.91;5077384;28;20023;-68
2023/10/27 00:37:48;;;;;;;0.65;0.50;;;;;;;12.87;95.04;98809.31;5110561;28;20564;-69
2023/10/27 00:40:14;;;;;;;0.30;0.30;;;;;;;12.69;97.08;98806.94;5091126;28;20114;-68
2023/10/27 00:42:41;;;;;;;0.85;0.55;;;;;;;12.87;95.99;98814.72;5109424;28;20484;-68
2023/10/27 00:45:07;;;;;;;0.65;0.50;;;;;;;13.09;94.51;98818.53;5108461;28;20076;-68
2023/10/27 00:47:33;;;;;;;0.30;0.30;;;;;;;13.09;94.29;98813.13;5093528;28;20448;-68
2023/10/27 00:49:59;;;;;;;0.50;0.50;;;;;;;13.13;94.45;98813.84;5103773;28;20030;-68
2023/10/27 00:52:26;;;;;;;0.85;0.60;;;;;;;13.20;94.24;98819.13;5101958;28;20740;-68
2023/10/27 00:54:53;;;;;;;1.20;0.60;;;;;;;13.09;94.08;98813.13;5090186;28;20441;-68
2023/10/27 00:57:18;;;;;;;1.55;0.50;;;;;;;13.12;94.02;98802.28;5088078;28;20096;-68
2023/10/27 00:59:46;;;;;;;1.50;0.50;;;;;;;13.10;94.32;98809.28;5108354;28;20023;-68
2023/10/27 01:02:14;;;;;;;0.50;0.50;;;;;;;12.97;94.79;98811.06;5091978;28;20054;-67
2023/10/27 01:04:40;;;;;;;0.40;0.40;;;;;;;13.04;94.21;98813.63;5111176;28;20024;-68
2023/10/27 01:07:06;;;;;;;0.50;0.50;;;;;;;13.15;93.84;98811.47;5092594;28;20028;-68
2023/10/27 01:09:31;;;;;;;0.68;0.50;;;;;;;13.00;94.04;98794.78;5106773;28;20107;-68
2023/10/27 01:11:57;;;;;;;0.50;0.30;;;;;;;12.90;95.26;98789.56;5090909;28;20027;-68
2023/10/27 01:14:27;;;;;;;3.53;0.70;;;;;;;12.80;95.84;98785.13;5110743;28;20646;-68
2023/10/27 01:16:52;;;;;;;1.10;0.30;;;;;;;12.77;95.58;98775.16;5091219;28;20553;-68
2023/10/27 01:19:18;;;;;;;0.80;0.40;;;;;;;12.72;94.94;98775.66;5086543;28;20020;-68
2023/10/27 01:21:44;;;;;;;0.43;0.40;;;;;;;12.39;98.13;98772.75;5092148;28;20039;-68
2023/10/27 01:24:09;;;;;;;4.40;0.60;;;;;;;12.32;98.08;98766.72;5105846;28;20118;-68
2023/10/27 01:26:37;;;;;;;0.80;0.47;;;;;;;12.53;98.01;98772.50;5087935;28;20107;-68
2023/10/27 01:29:03;;;;;;;0.52;0.50;;;;;;;12.71;96.92;98764.09;5090900;28;20040;-69
2023/10/27 01:31:28;;;;;;;0.52;0.38;;;;;;;12.68;96.51;98770.28;5092082;28;20038;-68
2023/10/27 01:33:54;;;;;;;0.93;0.40;;;;;;;12.73;96.52;98766.38;5077041;28;20058;-68
2023/10/27 01:36:24;;;;;;;0.40;0.30;;;;;;;12.84;96.25;98758.81;5090881;28;20035;-68
2023/10/27 01:38:50;;;;;;;0.30;0.30;;;;;;;13.02;95.11;98753.81;5111219;28;20395;-68
2023/10/27 01:41:15;;;;;;;0.80;0.47;;;;;;;12.99;94.90;98760.81;5090280;28;20111;-68
2023/10/27 01:43:41;;;;;;;0.60;0.50;;;;;;;13.05;94.63;98759.16;5090925;28;20550;-68
2023/10/27 01:46:06;;;;;;;0.40;0.40;;;;;;;12.83;94.97;98762.69;5111620;28;20058;-68
2023/10/27 01:48:32;;;;;;;0.30;0.25;;;;;;;12.89;95.32;98761.03;5091502;28;20033;-68
2023/10/27 01:50:58;;;;;;;1.60;0.47;;;;;;;12.62;95.86;98753.03;5083847;28;20092;-68
2023/10/27 01:53:23;;;;;;;0.55;0.50;;;;;;;12.76;95.89;98746.59;5075545;28;20119;-68
2023/10/27 01:55:49;;;;;;;1.08;0.40;;;;;;;12.72;95.75;98745.94;5074574;28;20032;-68
2023/10/27 01:58:14;;;;;;;0.30;0.30;;;;;;;12.65;95.86;98742.19;5091718;28;20746;-68
2023/10/27 02:00:40;;;;;;;0.47;0.40;;;;;;;12.55;97.07;98747.78;5071864;28;20666;-67
2023/10/27 02:03:05;;;;;;;0.38;0.30;;;;;;;12.27;97.45;98746.38;5091043;28;20511;-68
2023/10/27 02:05:34;;;;;;;0.52;0.40;;;;;;;12.37;98.65;98741.94;5090277;28;20036;-68
2023/10/27 02:08:01;;;;;;;0.55;0.43;;;;;;;12.42;98.10;98742.25;5089951;28;20039;-67
2023/10/27 02:10:26;;;;;;;0.50;0.50;;;;;;;12.61;97.93;98746.91;5089381;28;20028;-68
2023/10/27 02:12:52;;;;;;;0.60;0.30;;;;;;;12.72;96.80;98737.84;5088359;28;20031;-68
2023/10/27 02:15:18;;;;;;;1.17;0.65;;;;;;;12.87;95.85;98742.53;5106055;28;20027;-69
2023/10/27 02:17:43;;;;;;;0.30;0.30;;;;;;;12.90;95.38;98746.34;5108855;28;20027;-68
2023/10/27 02:20:09;;;;;;;0.70;0.50;;;;;;;12.66;95.70;98754.50;5090133;28;20168;-68
2023/10/27 02:22:39;;;;;;;0.30;0.20;;;;;;;12.80;96.14;98753.47;5089628;28;20267;-68
2023/10/27 02:25:05;;;;;;;0.38;0.28;;;;;;;12.96;95.09;98756.25;5102504;28;20697;-68
2023/10/27 02:27:31;;;;;;;0.38;0.38;;;;;;;12.92;95.28;98752.09;5109798;28;20076;-68
2023/10/27 02:29:57;;;;;;;0.40;0.40;;;;;;;12.86;95.67;98756.44;5107769;28;20036;-67
2023/10/27 02:32:23;;;;;;;0.30;0.30;;;;;;;12.90;95.13;98754.44;5085235;28;20023;-68
2023/10/27 02:34:49;;;;;;;0.60;0.30;;;;;;;12.87;95.36;98758.00;5106526;28;20511;-68
2023/10/27 02:37:14;;;;;;;2.20;0.40;;;;;;;12.54;97.18;98757.09;5087980;28;20028;-68
2023/10/27 02:39:40;;;;;;;0.45;0.45;;;;;;;12.55;97.45;98756.66;5090148;28;20102;-68
2023/10/27 02:42:05;;;;;;;3.10;0.40;;;;;;;12.55;96.75;98758.59;5105347;28;20598;-68
2023/10/27 02:44:31;;;;;;;0.57;0.47;;;;;;;12.62;96.24;98753.03;5092710;28;20023;-68
2023/10/27 02:46:56;;;;;;;0.45;0.45;;;;;;;12.67;96.05;98749.88;5104771;28;20055;-68
2023/10/27 02:49:25;;;;;;;0.35;0.25;;;;;;;12.69;96.43;98761.81;5106765;28;20039;-69
2023/10/27 02:51:51;;;;;;;1.15;0.50;;;;;;;12.78;96.37;98766.63;5086194;28;20019;-68
2023/10/27 02:54:16;;;;;;;1.45;0.30;;;;;;;12.57;96.70;98750.84;5086587;28;20027;-67
2023/10/27 02:56:42;;;;;;;0.40;0.22;;;;;;;12.62;96.82;98753.81;5108588;28;20107;-68
2023/10/27 02:59:10;;;;;;;0.30;0.30;;;;;;;12.50;97.19;98757.13;5088536;28;20114;-67
2023/10/27 03:01:35;;;;;;;0.60;0.40;;;;;;;12.56;97.53;98752.03;5090992;28;20110;-68
2023/10/27 03:04:01;;;;;;;5.72;0.43;;;;;;;12.62;97.80;98761.91;5078076;28;20119;-70
2023/10/27 03:06:27;;;;;;;0.40;0.40;;;;;;;12.31;99.04;98757.84;5088115;28;20502;-70
2023/10/27 03:08:52;;;;;;;0.30;0.30;;;;;;;12.50;98.35;98765.22;5082805;28;20102;-68
2023/10/27 03:11:18;;;;;;;0.60;0.30;;;;;;;12.60;97.41;98763.53;5093269;28;20092;-69
2023/10/27 03:13:46;;;;;;;0.65;0.43;;;;;;;12.41;98.07;98770.41;5113450;28;20152;-68
2023/10/27 03:16:16;;;;;;;0.50;0.40;;;;;;;12.60;97.43;98766.22;5091131;28;20457;-68
2023/10/27 03:18:42;;;;;;;0.20;0.20;;;;;;;12.55;97.92;98769.38;5113583;28;20028;-68
2023/10/27 03:21:07;;;;;;;4.80;0.28;;;;;;;12.43;97.95;98761.88;5095247;28;20503;-68
2023/10/27 03:23:35;;;;;;;0.32;0.32;;;;;;;12.19;99.48;98761.19;5110961;28;20441;-70
2023/10/27 03:26:03;;;;;;;0.20;0.20;;;;;;;12.40;99.13;98760.03;5098157;28;20427;-68
2023/10/27 03:28:32;;;;;;;0.25;0.25;;;;;;;12.65;97.75;98758.41;5109222;28;20130;-68
2023/10/27 03:30:58;;;;;;;0.47;0.40;;;;;;;12.54;97.10;98757.09;5111841;28;20043;-68
2023/10/27 03:33:24;;;;;;;0.40;0.40;;;;;;;12.44;97.84;98758.81;5108856;28;20024;-68
2023/10/27 03:35:58;;;;;;;0.40;0.40;;;;;;;12.50;98.16;98753.69;5110590;28;20039;-68
2023/10/27 03:38:24;;;;;;;1.02;0.55;;;;;;;12.61;97.16;98754.25;5112513;28;20055;-68
2023/10/27 03:40:49;;;;;;;0.90;0.43;;;;;;;12.41;98.25;98750.75;5091975;28;20054;-68
2023/10/27 03:43:15;;;;;;;0.47;0.47;;;;;;;12.30;97.46;98748.25;5112282;28;20437;-68
2023/10/27 03:45:40;;;;;;;0.55;0.50;;;;;;;12.05;99.24;98752.53;5096112;28;20031;-69
2023/10/27 03:48:06;;;;;;;0.28;0.25;;;;;;;12.01;100.00;98760.69;5109457;28;20040;-68
2023/10/27 03:50:31;;;;;;;0.40;0.40;;;;;;;12.03;99.45;98755.66;5105020;28;20020;-68
2023/10/27 03:52:58;;;;;;;4.13;0.50;;;;;;;11.99;100.00;98754.19;5076149;28;20058;-68
2023/10/27 03:55:23;;;;;;;0.40;0.40;;;;;;;12.21;99.69;98758.84;5112339;28;20130;-67
2023/10/27 03:57:50;;;;;;;0.50;0.30;;;;;;;12.10;99.22;98758.22;5112360;28;20087;-68
2023/10/27 04:00:16;;;;;;;1.25;0.40;;;;;;;12.22;99.41;98760.34;5107049;28;20027;-68
2023/10/27 04:02:45;;;;;;;0.35;0.32;;;;;;;12.48;98.00;98754.09;5107264;28;20035;-68
2023/10/27 04:05:10;;;;;;;2.08;0.50;;;;;;;12.24;98.10;98760.69;5110856;28;20066;-68
2023/10/27 04:07:36;;;;;;;0.75;0.45;;;;;;;12.34;99.32;98756.28;5111714;28;20047;-68
2023/10/27 04:10:01;;;;;;;1.13;0.50;;;;;;;12.24;98.65;98754.53;5092880;28;20042;-69
2023/10/27 04:12:27;;;;;;;1.42;0.35;;;;;;;12.08;99.07;98752.47;5112774;28;20083;-66
2023/10/27 04:14:54;;;;;;;1.77;0.50;;;;;;;12.22;98.72;98751.47;5112175;28;20027;-66
2023/10/27 04:17:19;;;;;;;1.58;0.50;;;;;;;12.18;98.23;98740.75;5110770;28;20560;-65
2023/10/27 04:19:45;;;;;;;0.38;0.38;;;;;;;11.97;100.00;98745.75;5111462;28;20031;-68
2023/10/27 04:22:11;;;;;;;0.35;0.30;;;;;;;11.97;100.00;98740.34;5108615;28;20157;-68
2023/10/27 04:24:37;;;;;;;0.65;0.40;;;;;;;12.04;100.00;98751.78;5110110;28;20121;-68
2023/10/27 04:27:03;;;;;;;0.30;0.28;;;;;;;12.21;99.37;98748.03;5111243;28;20385;-68
2023/10/27 04:29:28;;;;;;;0.40;0.22;;;;;;;12.22;98.88;98746.06;5093242;28;20020;-68
2023/10/27 04:31:57;;;;;;;0.52;0.35;;;;;;;11.96;99.59;98742.31;5105124;28;20036;-68
2023/10/27 04:34:22;;;;;;;0.43;0.22;;;;;;;12.05;99.02;98741.75;5111124;28;20098;-69
2023/10/27 04:36:48;;;;;;;0.50;0.40;;;;;;;12.28;97.97;98744.44;5111601;28;20054;-68
2023/10/27 04:39:14;;;;;;;1.02;0.20;;;;;;;12.36;98.00;98752.00;5111269;28;20051;-66
2023/10/27 04:41:40;;;;;;;1.08;0.52;;;;;;;12.49;97.49;98749.44;5110410;28;20499;-66
2023/10/27 04:44:05;;;;;;;0.47;0.30;;;;;;;12.37;96.76;98758.91;5090626;28;20047;-68
2023/10/27 04:46:31;;;;;;;0.63;0.60;;;;;;;12.23;98.16;98761.84;5112159;28;20119;-69
2023/10/27 04:48:57;;;;;;;1.05;0.50;;;;;;;12.35;97.79;98763.22;5107634;28;20415;-68
2023/10/27 04:51:24;;;;;;;0.30;0.30;;;;;;;12.31;97.32;98755.16;5100199;28;20111;-66
2023/10/27 04:53:52;;;;;;;0.45;0.45;;;;;;;12.02;98.11;98756.06;5111239;28;20046;-66
2023/10/27 04:56:17;;;;;;;0.98;0.50;;;;;;;12.22;98.53;98754.19;5106429;28;20036;-66
2023/10/27 04:58:44;;;;;;;0.40;0.30;;;;;;;12.28;97.69;98756.00;5090999;28;20516;-66
2023/10/27 05:01:11;;;;;;;0.75;0.50;;;;;;;12.03;98.75;98755.66;5107893;28;20107;-66
2023/10/27 05:03:37;;;;;;;0.40;0.35;;;;;;;11.85;98.85;98749.00;5110835;28;20031;-66
2023/10/27 05:06:12;;;;;;;0.50;0.47;;;;;;;11.94;99.48;98746.56;5107596;28;20028;-66
2023/10/27 05:08:37;;;;;;;3.00;0.75;;;;;;;12.11;98.60;98756.31;5109623;28;20031;-66
2023/10/27 05:11:06;;;;;;;0.60;0.60;;;;;;;12.20;97.52;98748.44;5110946;28;20108;-67
2023/10/27 05:13:31;;;;;;;1.40;0.82;;;;;;;12.28;97.47;98752.53;5093277;28;20027;-66
2023/10/27 05:16:00;;;;;;;0.63;0.47;;;;;;;12.04;98.78;98749.06;5085381;28;20110;-66
2023/10/27 05:18:26;;;;;;;0.60;0.40;;;;;;;12.18;98.36;98742.69;5091863;28;20539;-66
2023/10/27 05:20:53;;;;;;;0.70;0.52;;;;;;;11.66;99.76;98745.06;5107207;28;20070;-67
2023/10/27 05:23:18;;;;;;;1.25;0.35;;;;;;;11.96;99.51;98744.22;5089778;28;20027;-67
2023/10/27 05:25:43;;;;;;;0.35;0.35;;;;;;;11.87;98.08;98739.34;5089860;28;20119;-66
2023/10/27 05:28:09;;;;;;;0.30;0.30;;;;;;;12.00;99.11;98751.06;5107121;28;20035;-66
2023/10/27 05:30:35;;;;;;;0.60;0.43;;;;;;;12.10;98.22;98733.94;5108295;28;20028;-67
2023/10/27 05:33:01;;;;;;;0.95;0.55;;;;;;;12.23;97.86;98740.25;5088033;28;20486;-67
2023/10/27 05:35:27;;;;;;;0.43;0.43;;;;;;;12.33;96.78;98742.00;5089983;28;20084;-68
2023/10/27 05:37:52;;;;;;;1.65;0.68;;;;;;;12.34;97.08;98740.84;5110691;28;20027;-66
2023/10/27 05:40:17;;;;;;;0.82;0.68;;;;;;;12.27;97.26;98748.31;5090298;28;20376;-67
2023/10/27 05:42:43;;;;;;;0.63;0.40;;;;;;;12.08;97.68;98757.13;5105008;28;20092;-67
2023/10/27 05:45:11;;;;;;;1.33;0.60;;;;;;;12.07;98.41;98742.88;5106321;28;20442;-67
2023/10/27 05:47:38;;;;;;;1.30;0.63;;;;;;;12.03;99.09;98752.97;5109606;28;20038;-67
2023/10/27 05:50:06;;;;;;;1.08;0.57;;;;;;;12.04;98.71;98748.34;5108450;28;20522;-66
2023/10/27 05:52:35;;;;;;;1.50;0.50;;;;;;;12.18;98.50;98750.78;5109370;28;20135;-66
2023/10/27 05:55:04;;;;;;;0.52;0.52;;;;;;;12.14;98.80;98747.38;5108994;28;20043;-67
2023/10/27 05:57:33;;;;;;;2.60;1.00;;;;;;;12.24;97.97;98744.50;5090085;28;20027;-67
2023/10/27 05:59:58;;;;;;;2.08;0.80;;;;;;;12.16;98.28;98742.31;5104617;28;20036;-67
2023/10/27 06:02:24;;;;;;;0.98;0.70;;;;;;;12.14;97.94;98753.53;5108359;28;20038;-67
2023/10/27 06:04:49;;;;;;;1.27;0.63;;;;;;;12.19;98.22;98744.22;5107684;28;20031;-67
2023/10/27 06:07:18;;;;;;;0.77;0.60;;;;;;;12.22;98.34;98748.78;5111386;28;20121;-69
2023/10/27 06:09:44;;;;;;;0.60;0.60;;;;;;;12.19;98.57;98753.09;5091141;28;20031;-67
2023/10/27 06:12:10;;;;;;;0.60;0.60;;;;;;;12.28;98.16;98749.84;5110771;28;20368;-67
2023/10/27 06:14:44;;;;;;;0.35;0.35;;;;;;;11.83;99.96;98743.28;5829173;22;20421;-68
2023/10/27 06:17:11;;;;;;;0.50;0.45;;;;;;;11.78;100.00;98756.06;4976213;28;20197;-67
2023/10/27 06:19:36;;;;;;;0.77;0.60;;;;;;;12.01;99.84;98752.59;4987747;28;20038;-68
2023/10/27 06:22:03;;;;;;;0.57;0.40;;;;;;;12.08;99.69;98752.47;4986464;28;20514;-67
2023/10/27 06:24:29;;;;;;;1.98;0.47;;;;;;;11.95;98.54;98748.84;4986451;28;20030;-68
2023/10/27 06:26:54;;;;;;;0.65;0.57;;;;;;;11.59;100.00;98751.31;4983997;28;20498;-67
2023/10/27 06:29:21;;;;;;;3.03;0.82;;;;;;;11.68;100.00;98751.59;4985138;28;20493;-68
2023/10/27 06:31:47;;;;;;;0.88;0.70;;;;;;;12.03;100.00;98739.47;4967478;28;20406;-68
2023/10/27 06:34:12;;;;;;;1.33;0.77;;;;;;;12.06;100.00;98754.81;4988172;28;20041;-68
2023/10/27 06:36:38;;;;;;;1.13;0.55;;;;;;;12.17;98.76;98744.63;4989331;28;20026;-67
2023/10/27 06:39:03;;;;;;;1.05;0.68;;;;;;;12.04;98.43;98743.69;4985796;28;20042;-67
2023/10/27 06:41:29;;;;;;;0.70;0.50;;;;;;;12.21;98.21;98753.44;4987490;28;20021;-68
2023/10/27 06:43:57;;;;;;;1.02;0.80;;;;;;;12.04;98.47;98759.88;4992849;28;20109;-68
2023/10/27 06:46:22;;;;;;;0.80;0.65;;;;;;;12.06;98.65;98759.47;5005388;28;20026;-68
2023/10/27 06:48:51;;;;;;;1.60;0.55;;;;;;;11.92;99.95;98757.78;4990407;28;20033;-67
2023/10/27 06:51:20;;;;;;;0.70;0.68;;;;;;;11.67;100.00;98754.72;4991244;28;20034;-68
2023/10/27 06:53:46;;;;;;;1.70;0.80;;;;;;;11.89;100.00;98750.50;4990010;28;20076;-68
2023/10/27 06:56:11;;;;;;;0.80;0.70;;;;;;;11.93;100.00;98753.13;4997192;28;20463;-67
2023/10/27 06:58:37;;;;;;;1.08;0.65;;;;;;;11.97;100.00;98757.31;4993319;28;20438;-67
2023/10/27 07:01:09;;;;;;;0.98;0.60;;;;;;;11.98;99.78;98756.13;4994306;28;20022;-67
2023/10/27 07:03:35;;;;;;;2.00;0.60;;;;;;;12.18;99.02;98751.53;4993055;28;20042;-68
2023/10/27 07:06:04;;;;;;;1.30;0.70;;;;;;;12.06;99.16;98751.38;4991314;28;20426;-68
2023/10/27 07:08:33;;;;;;;1.15;0.90;;;;;;;12.17;98.71;98750.03;5006679;28;20520;-68
2023/10/27 07:10:58;;;;;;;2.95;0.80;;;;;;;12.19;98.15;98753.09;4994193;28;20034;-68
2023/10/27 07:13:25;;;;;;;0.70;0.70;;;;;;;12.13;98.48;98760.13;5009801;28;20038;-68
2023/10/27 07:15:51;;;;;;;1.08;0.70;;;;;;;12.18;98.96;98750.78;5007128;28;20033;-68
2023/10/27 07:18:16;;;;;;;1.38;0.70;;;;;;;12.03;99.74;98755.66;5006424;28;20026;-67
2023/10/27 07:20:42;;;;;;;2.22;0.70;;;;;;;12.17;99.22;98747.34;4990402;28;20029;-68
2023/10/27 07:23:07;;;;;;;2.15;0.75;;;;;;;12.31;98.76;98751.72;4997194;28;20034;-67
2023/10/27 07:25:32;;;;;;;1.80;0.70;;;;;;;12.19;98.05;98755.78;4992068;28;20042;-68
2023/10/27 07:27:58;;;;;;;2.03;0.85;;;;;;;12.15;98.99;98748.91;4992368;28;20038;-68
2023/10/27 07:30:23;;;;;;;1.33;0.75;;;;;;;12.36;98.05;98751.22;4984125;28;20517;-67
2023/10/27 07:32:49;;;;;;;1.77;0.80;;;;;;;12.45;97.87;98760.31;4991072;28;20041;-67
2023/10/27 07:35:15;;;;;;;1.60;0.70;;;;;;;12.41;98.27;98761.53;4990727;28;20398;-67
2023/10/27 07:37:40;;;;;;;0.73;0.50;;;;;;;12.52;98.50;98752.06;4990863;28;20695;-67
2023/10/27 07:40:06;;;;;;;1.15;0.63;;;;;;;12.56;97.87;98755.47;4993231;28;20498;-68
2023/10/27 07:42:32;;;;;;;1.60;0.85;;;;;;;12.46;97.84;98753.75;4989661;28;20117;-68
2023/10/27 07:44:58;;;;;;;1.70;1.00;;;;;;;12.40;98.02;98755.41;4991745;28;20113;-68
2023/10/27 07:47:24;;;;;;;2.45;1.15;;;;;;;12.28;99.55;98755.22;5013332;28;20049;-68
2023/10/27 07:49:53;;;;;;;1.17;1.02;;;;;;;12.48;98.53;98756.03;4984840;28;20031;-68
2023/10/27 07:52:19;;;;;;;1.33;0.85;;;;;;;12.57;98.44;98751.59;4975742;28;20510;-68
2023/10/27 07:54:44;;;;;;;3.53;1.02;;;;;;;12.55;97.46;98743.16;4993470;28;20057;-68
2023/10/27 07:57:10;;;;;;;1.85;0.93;;;;;;;12.57;98.23;98756.25;4990086;28;20121;-68
2023/10/27 07:59:36;;;;;;;1.08;0.65;;;;;;;12.57;97.65;98756.25;4991019;28;20018;-67
2023/10/27 08:02:04;;;;;;;1.05;0.73;;;;;;;12.59;97.68;98757.34;4993898;28;20046;-68
2023/10/27 08:04:34;;;;;;;2.03;0.70;;;;;;;12.48;98.55;98745.22;4988567;28;20030;-67
2023/10/27 08:07:00;;;;;;;2.60;0.75;;;;;;;12.43;98.25;98745.69;4991432;28;20038;-67
2023/10/27 08:09:25;;;;;;;0.30;0.30;;;;;;;12.47;98.46;98747.16;4990393;28;20024;-67
2023/10/27 08:11:54;;;;;;;2.25;0.90;;;;;;;12.52;97.22;98752.06;4990478;28;20605;-67
2023/10/27 08:14:19;;;;;;;1.15;0.63;;;;;;;12.58;97.03;98753.13;5006098;28;20046;-68
2023/10/27 08:16:45;;;;;;;1.48;0.73;;;;;;;12.61;97.53;98752.31;4989866;28;20078;-67
2023/10/27 08:19:10;;;;;;;2.45;0.90;;;;;;;12.35;99.05;98755.88;4989255;28;20053;-67
2023/10/27 08:21:36;;;;;;;0.68;0.47;;;;;;;12.64;98.27;98756.88;5009996;28;20030;-67
2023/10/27 08:24:01;;;;;;;1.48;0.90;;;;;;;12.85;96.54;98753.00;4991114;28;20121;-67
2023/10/27 08:26:27;;;;;;;1.48;0.70;;;;;;;12.85;96.36;98757.63;4992521;28;20026;-67
2023/10/27 08:28:52;;;;;;;0.75;0.63;;;;;;;12.91;95.92;98764.81;4988923;28;20037;-68
2023/10/27 08:31:17;;;;;;;1.80;0.50;;;;;;;12.78;95.91;98760.47;4985756;28;20588;-68
2023/10/27 08:33:43;;;;;;;0.85;0.50;;;;;;;12.72;95.67;98770.25;4998897;28;20034;-67
2023/10/27 08:36:08;;;;;;;1.23;0.70;;;;;;;12.87;95.29;98774.19;4991231;28;20049;-68
2023/10/27 08:38:34;;;;;;;0.60;0.55;;;;;;;12.84;95.56;98769.59;4991477;28;20941;-67
2023/10/27 08:40:59;;;;;;;1.10;0.63;;;;;;;12.57;96.24;98775.16;4992952;28;20061;-68
2023/10/27 08:43:25;;;;;;;3.72;1.00;;;;;;;12.55;96.52;98778.25;4999491;28;20097;-68
2023/10/27 08:45:51;;;;;;;1.00;0.77;;;;;;;12.69;96.89;98779.94;4989273;28;20452;-67
2023/10/27 08:48:17;;;;;;;2.05;0.70;;;;;;;12.63;96.63;98773.50;4991424;28;20053;-67
2023/10/27 08:50:42;;;;;;;1.17;0.70;;;;;;;12.69;96.49;98780.72;4987823;28;20057;-67
2023/10/27 08:53:14;;;;;;;1.33;0.60;;;;;;;12.41;97.16;98766.94;4995150;28;20528;-67
2023/10/27 08:55:41;;;;;;;0.40;0.40;;;;;;;12.66;96.94;98778.81;4994628;28;20030;-67
2023/10/27 08:58:06;;;;;;;1.08;0.63;;;;;;;12.69;96.19;98775.31;4990100;28;20057;-67
2023/10/27 09:00:32;;;;;;;0.60;0.43;;;;;;;12.83;95.25;98771.56;4991879;28;20042;-68
2023/10/27 09:02:57;;;;;;;0.80;0.60;;;;;;;12.58;96.73;98782.81;4991833;28;20103;-67
2023/10/27 09:05:24;;;;;;;2.50;1.00;;;;;;;12.60;95.73;98777.78;4991990;28;20521;-68
2023/10/27 09:07:52;;;;;;;1.45;0.60;;;;;;;12.68;95.93;98773.00;4990286;28;20034;-68
2023/10/27 09:10:18;;;;;;;0.85;0.50;;;;;;;12.73;96.69;98767.13;4990718;28;20096;-68
2023/10/27 09:12:47;;;;;;;0.60;0.43;;;;;;;12.71;96.21;98769.47;4991801;28;20108;-68
2023/10/27 09:15:13;;;;;;;0.57;0.47;;;;;;;12.79;95.91;98773.56;4988516;28;20042;-68
2023/10/27 09:17:56;;;;;;;1.08;0.60;;;;;;;12.82;95.13;98774.66;4991755;28;20160;-67
2023/10/27 09:20:23;;;;;;;0.80;0.38;;;;;;;12.35;97.30;98780.16;4987349;28;20409;-67
2023/10/27 09:23:09;;;;;;;0.93;0.17;;;;;;;12.66;97.11;98786.16;4991848;28;20208;-68
2023/10/27 09:25:35;;;;;;;0.32;0.32;;;;;;;12.81;96.51;98784.72;4988703;28;20056;-68
2023/10/27 09:28:03;;;;;;;0.85;0.35;;;;;;;12.42;97.78;98782.75;4993672;28;20514;-67
2023/10/27 09:30:33;;;;;;;0.60;0.45;;;;;;;12.63;97.06;98787.75;5004028;28;20049;-67
2023/10/27 09:33:16;;;;;;;0.90;0.32;;;;;;;12.58;96.90;98785.53;4990718;28;20613;-68
2023/10/27 09:35:43;;;;;;;0.60;0.52;;;;;;;12.68;95.99;98789.19;4993757;28;20034;-67
2023/10/27 09:38:09;;;;;;;0.55;0.40;;;;;;;12.62;97.28;98790.84;4988060;28;20019;-67
2023/10/27 09:40:40;;;;;;;0.60;0.30;;;;;;;12.57;96.53;98799.44;4991534;28;20081;-67
2023/10/27 09:43:07;;;;;;;3.47;1.27;;;;;;;12.76;96.60;98793.28;4991823;28;20521;-67
2023/10/27 09:45:34;;;;;;;0.40;0.40;;;;;;;12.91;96.16;98791.84;4990524;28;20025;-68
2023/10/27 09:48:04;;;;;;;1.13;0.52;;;;;;;12.82;96.14;98793.56;4984624;28;20031;-67
2023/10/27 09:50:30;;;;;;;0.90;0.50;;;;;;;12.89;95.80;98791.50;4992289;28;20513;-67
2023/10/27 09:53:02;;;;;;;0.70;0.52;;;;;;;12.68;96.42;98789.19;4997025;28;20034;-68
2023/10/27 09:55:30;;;;;;;0.47;0.47;;;;;;;12.86;95.48;98788.88;4988675;28;20034;-67
2023/10/27 09:57:57;;;;;;;2.35;0.70;;;;;;;12.83;96.30;98792.41;4987808;28;20855;-67
2023/10/27 10:00:26;;;;;;;1.40;0.80;;;;;;;12.79;96.39;98792.47;4991714;28;20037;-67
2023/10/27 10:02:53;;;;;;;0.75;0.57;;;;;;;12.66;97.24;98791.56;4985811;28;20031;-67
2023/10/27 10:05:18;;;;;;;1.30;0.50;;;;;;;12.83;96.75;98797.81;4979783;28;20036;-68
2023/10/27 10:07:47;;;;;;;2.70;1.30;;;;;;;12.64;97.85;98789.28;4976940;28;20113;-67
2023/10/27 10:10:33;;;;;;;0.50;0.50;;;;;;;12.93;96.68;98786.03;4969563;28;20041;-67
2023/10/27 10:13:02;;;;;;;0.65;0.50;;;;;;;12.93;96.61;98791.44;4985237;28;20053;-67
2023/10/27 10:15:32;;;;;;;1.45;0.75;;;;;;;12.96;96.12;98787.91;4989088;28;22000;-67
2023/10/27 10:18:03;;;;;;;1.17;0.80;;;;;;;12.97;96.28;98794.84;4999445;28;20042;-68
2023/10/27 10:20:49;;;;;;;1.17;0.70;;;;;;;13.10;94.97;98784.94;4992075;28;20034;-67
2023/10/27 10:23:16;;;;;;;1.63;1.00;;;;;;;13.17;94.89;98788.28;5004677;28;20629;-67
2023/10/27 10:25:57;;;;;;;1.45;0.90;;;;;;;13.02;95.16;98776.19;4985970;28;20034;-68
2023/10/27 10:28:30;;;;;;;1.83;0.60;;;;;;;12.88;95.74;98778.41;4979823;28;20116;-67
2023/10/27 10:31:07;;;;;;;4.15;0.80;;;;;;;13.01;95.19;98782.00;4985984;28;20849;-67
2023/10/27 10:33:37;;;;;;;1.77;0.70;;;;;;;13.13;95.19;98782.19;4989289;28;20046;-67
2023/10/27 10:36:18;;;;;;;2.75;1.00;;;;;;;12.92;94.90;98779.09;4987966;28;20074;-67
2023/10/27 10:38:55;;;;;;;2.20;1.00;;;;;;;13.10;94.17;98779.56;4985684;28;20038;-67
2023/10/27 10:41:41;;;;;;;1.40;0.80;;;;;;;13.25;93.66;98769.97;5003314;28;20038;-67
2023/10/27 10:44:14;;;;;;;0.70;0.60;;;;;;;13.34;93.98;98770.91;4980658;28;20133;-67
2023/10/27 10:46:41;;;;;;;1.42;0.93;;;;;;;13.23;94.32;98772.31;5003589;28;20030;-67
2023/10/27 10:49:07;;;;;;;0.88;0.80;;;;;;;13.29;92.71;98765.25;5001051;28;20030;-67
2023/10/27 10:51:38;;;;;;;1.48;0.77;;;;;;;13.20;93.07;98776.59;4989167;28;20040;-67
2023/10/27 10:54:12;;;;;;;;;;;;;;;13.04;93.81;98767.69;4985277;28;20498;-67
2023/10/27 10:56:38;;;;;;;0.65;0.52;;;;;;;13.04;94.08;98768.47;4987109;28;20011;-67
2023/10/27 10:59:04;;;;;;;0.93;0.70;;;;;;;13.23;93.23;98758.81;4994148;28;20061;-67
2023/10/27 11:01:30;;;;;;;1.85;1.35;;;;;;;13.29;93.17;98765.25;4992083;28;20038;-67
2023/10/27 11:03:57;;;;;;;1.95;0.90;;;;;;;13.22;92.81;98763.44;4991418;28;20034;-67
2023/10/27 11:06:25;;;;;;;1.63;0.93;;;;;;;13.38;92.41;98763.47;4991517;28;20041;-68
2023/10/27 11:08:51;;;;;;;1.88;1.05;;;;;;;13.37;92.47;98756.56;4993132;28;20080;-67
2023/10/27 11:11:18;;;;;;;2.75;1.17;;;;;;;13.16;93.21;98761.66;4995499;28;20042;-67
2023/10/27 11:13:47;;;;;;;1.45;1.10;;;;;;;13.29;92.41;98757.13;5005328;28;20034;-67
2023/10/27 11:16:15;;;;;;;2.08;0.95;;;;;;;13.22;92.38;98763.44;4945289;28;1262831;-67
2023/10/27 11:18:42;;;;;;;2.30;1.25;;;;;;;13.25;93.00;98768.03;4992762;28;20045;-67
2023/10/27 11:21:20;;;;;;;1.98;0.98;;;;;;;13.46;92.76;98761.38;4992648;28;20422;-67
2023/10/27 11:23:46;;;;;;;1.98;0.80;;;;;;;13.44;92.67;98761.03;4999870;28;20030;-67
2023/10/27 11:26:14;;;;;;;1.98;0.82;;;;;;;13.52;92.34;98765.13;4988610;28;20038;-67
2023/10/27 11:28:41;;;;;;;2.08;1.08;;;;;;;13.58;92.12;98763.44;4989464;28;20632;-67
2023/10/27 11:31:13;;;;;;;1.88;1.05;;;;;;;13.61;90.78;98756.44;4994600;28;20034;-67
2023/10/27 11:33:57;;;;;;;1.73;1.17;;;;;;;13.61;90.92;98756.44;5006789;28;20095;-67